Time;durP1;ratioP1;P1;durP2;ratioP2;P2;SDS_P1;SDS_P2;PMS_P1;PMS_P2;Temp;Humidity;BMP_temperature;BMP_pressure;BME280_temperature;BME280_humidity;BME280_pressure;Samples;Min_cycle;Max_cycle;Signal;HPM_P1;HPM_P2
2022/04/22 00:00:53;;;;;;;;;;;11.80;41.00;;;;;;4968783;28;19932;-71
2022/04/22 00:03:20;;;;;;;;;;;11.70;41.40;;;;;;4965341;28;19937;-71
2022/04/22 00:05:47;;;;;;;;;;;11.60;41.80;;;;;;4970224;28;19933;-71
2022/04/22 00:08:13;;;;;;;;;;;11.50;42.50;;;;;;4967156;28;19927;-71
2022/04/22 00:11:29;;;;;;;;;;;11.50;42.30;;;;;;4967752;28;19941;-71
2022/04/22 00:13:27;;;;;;;;;;;11.40;42.20;;;;;;4972153;28;19932;-71
2022/04/22 00:15:55;;;;;;;;;;;11.40;42.50;;;;;;4970225;28;19926;-71
2022/04/22 00:18:23;;;;;;;;;;;11.30;42.70;;;;;;4968527;28;19933;-71
2022/04/22 00:20:50;;;;;;;;;;;11.30;42.70;;;;;;4955281;28;20064;-71
2022/04/22 00:23:16;;;;;;;;;;;11.20;42.90;;;;;;4965141;28;20018;-71
2022/04/22 00:25:43;;;;;;;;;;;11.20;43.20;;;;;;4954376;28;19980;-71
2022/04/22 00:28:10;;;;;;;;;;;11.10;43.50;;;;;;4959278;28;19932;-71
2022/04/22 00:30:36;;;;;;;;;;;11.10;44.20;;;;;;4959044;28;19926;-71
2022/04/22 00:33:06;;;;;;;;;;;11.00;43.90;;;;;;4964774;28;19949;-71
2022/04/22 00:35:32;;;;;;;;;;;11.00;44.10;;;;;;4956073;28;20355;-71
2022/04/22 00:37:59;;;;;;;;;;;10.90;44.30;;;;;;4958863;28;19933;-71
2022/04/22 00:40:26;;;;;;;;;;;10.90;44.50;;;;;;4990892;28;19926;-71
2022/04/22 00:42:52;;;;;;;;;;;10.80;45.00;;;;;;4963327;28;19957;-71
2022/04/22 00:45:19;;;;;;;;;;;10.90;45.20;;;;;;4968875;28;19969;-71
2022/04/22 00:47:46;;;;;;;;;;;10.80;45.20;;;;;;4970038;28;19949;-71
2022/04/22 00:50:14;;;;;;;;;;;10.80;45.60;;;;;;4958619;28;19926;-71
2022/04/22 00:52:41;;;;;;;;;;;10.80;45.70;;;;;;4960056;28;19926;-71
2022/04/22 00:55:08;;;;;;;;;;;10.70;45.90;;;;;;4968801;28;19971;-71
2022/04/22 00:57:35;;;;;;;;;;;10.70;46.10;;;;;;4963194;28;19948;-71
2022/04/22 01:00:04;;;;;;;;;;;10.80;46.40;;;;;;4959693;28;20367;-71
2022/04/22 01:02:30;;;;;;;;;;;10.70;46.60;;;;;;4957692;28;19952;-71
2022/04/22 01:10:27;;;;;;;;;;;10.60;47.60;;;;;;4959450;28;19949;-71
2022/04/22 01:12:54;;;;;;;;;;;10.60;48.20;;;;;;4959498;28;19971;-71
2022/04/22 01:15:21;;;;;;;;;;;10.50;48.60;;;;;;4970484;28;19974;-71
2022/04/22 01:17:47;;;;;;;;;;;10.50;48.80;;;;;;5004388;28;19995;-73
2022/04/22 01:20:16;;;;;;;;;;;10.50;49.20;;;;;;4971729;28;19926;-70
2022/04/22 01:22:44;;;;;;;;;;;10.40;49.70;;;;;;4955963;28;19933;-71
2022/04/22 01:25:10;;;;;;;;;;;10.40;50.00;;;;;;4960447;28;20012;-70
2022/04/22 01:27:40;;;;;;;;;;;10.40;50.40;;;;;;4971910;28;20021;-70
2022/04/22 01:30:07;;;;;;;;;;;10.20;50.80;;;;;;4972765;28;19932;-71
2022/04/22 01:32:34;;;;;;;;;;;10.20;51.10;;;;;;4979914;28;20304;-70
2022/04/22 01:35:03;;;;;;;;;;;10.20;51.90;;;;;;4964762;28;19931;-71
2022/04/22 01:37:31;;;;;;;;;;;10.10;52.40;;;;;;4953985;28;19927;-71
2022/04/22 01:40:00;;;;;;;;;;;10.10;53.10;;;;;;4965753;28;19934;-71
2022/04/22 01:42:26;;;;;;;;;;;10.00;53.80;;;;;;4958833;28;20428;-70
2022/04/22 01:44:53;;;;;;;;;;;10.00;54.60;;;;;;4966656;28;19926;-71
2022/04/22 01:47:20;;;;;;;;;;;9.90;56.40;;;;;;4954515;28;19934;-71
2022/04/22 01:49:47;;;;;;;;;;;9.90;56.80;;;;;;4965680;28;19926;-71
2022/04/22 01:52:13;;;;;;;;;;;9.90;57.60;;;;;;4967312;28;20404;-71
2022/04/22 01:54:40;;;;;;;;;;;9.90;58.10;;;;;;4971734;28;20551;-71
2022/04/22 01:57:08;;;;;;;;;;;9.90;58.90;;;;;;4975011;28;20012;-71
2022/04/22 01:59:35;;;;;;;;;;;9.80;59.80;;;;;;4963779;28;20404;-72
2022/04/22 02:02:02;;;;;;;;;;;9.70;61.10;;;;;;4972820;28;19938;-71
2022/04/22 02:07:09;;;;;;;;;;;9.70;63.80;;;;;;4970023;28;19984;-72
2022/04/22 02:09:36;;;;;;;;;;;9.60;65.30;;;;;;4962612;28;19927;-69
2022/04/22 02:12:03;;;;;;;;;;;9.60;66.80;;;;;;4961923;28;20025;-77
2022/04/22 02:14:31;;;;;;;;;;;9.50;68.00;;;;;;4962284;28;19927;-72
2022/04/22 02:16:57;;;;;;;;;;;9.50;69.10;;;;;;4969903;28;19973;-71
2022/04/22 02:19:24;;;;;;;;;;;9.50;70.50;;;;;;4961843;28;19926;-71
2022/04/22 02:21:51;;;;;;;;;;;9.60;71.20;;;;;;4973558;28;20385;-71
2022/04/22 02:24:18;;;;;;;;;;;9.50;72.60;;;;;;4964309;28;20017;-71
2022/04/22 02:29:29;;;;;;;;;;;9.30;75.90;;;;;;4964315;28;20403;-71
2022/04/22 02:31:57;;;;;;;;;;;9.30;77.50;;;;;;4964617;28;20381;-71
2022/04/22 02:34:24;;;;;;;;;;;9.20;78.70;;;;;;4952350;28;19927;-70
2022/04/22 02:36:52;;;;;;;;;;;9.20;79.60;;;;;;4960025;28;19926;-71
2022/04/22 02:39:19;;;;;;;;;;;9.20;80.90;;;;;;4964733;28;19982;-71
2022/04/22 02:47:17;;;;;;;;;;;9.10;85.60;;;;;;4965002;28;20008;-76
2022/04/22 02:49:45;;;;;;;;;;;9.10;86.90;;;;;;4965345;28;19933;-72
2022/04/22 02:52:12;;;;;;;;;;;9.10;87.70;;;;;;4953801;28;20388;-70
2022/04/22 02:54:39;;;;;;;;;;;9.10;89.10;;;;;;4965025;28;19926;-70
2022/04/22 02:57:06;;;;;;;;;;;9.00;90.30;;;;;;4969464;28;19972;-70
2022/04/22 02:59:33;;;;;;;;;;;9.00;90.80;;;;;;4959898;28;20469;-71
2022/04/22 03:02:00;;;;;;;;;;;9.00;91.20;;;;;;4953196;28;19973;-70
2022/04/22 03:04:28;;;;;;;;;;;9.00;91.70;;;;;;4960956;28;19926;-70
2022/04/22 03:06:55;;;;;;;;;;;8.90;92.50;;;;;;4962159;28;20377;-70
2022/04/22 03:09:22;;;;;;;;;;;8.90;93.00;;;;;;4960774;28;19927;-71
2022/04/22 03:11:51;;;;;;;;;;;8.90;93.60;;;;;;4966342;28;20292;-72
2022/04/22 03:14:19;;;;;;;;;;;8.90;94.10;;;;;;4966291;28;19926;-71
2022/04/22 03:16:51;;;;;;;;;;;8.80;94.50;;;;;;4964784;28;19934;-71
2022/04/22 03:19:17;;;;;;;;;;;8.80;94.80;;;;;;4951441;28;20402;-71
2022/04/22 03:21:45;;;;;;;;;;;8.70;95.50;;;;;;4952272;28;19926;-72
2022/04/22 03:24:12;;;;;;;;;;;8.70;95.90;;;;;;4973476;28;20444;-71
2022/04/22 03:26:39;;;;;;;;;;;8.70;96.30;;;;;;4959624;28;19926;-71
2022/04/22 03:29:05;;;;;;;;;;;8.70;96.70;;;;;;4961960;28;19926;-71
2022/04/22 03:31:32;;;;;;;;;;;8.60;97.20;;;;;;4954353;28;19934;-71
2022/04/22 03:33:59;;;;;;;;;;;8.60;97.70;;;;;;4962903;28;20444;-71
2022/04/22 03:36:25;;;;;;;;;;;8.60;98.30;;;;;;4950873;28;20465;-71
2022/04/22 03:38:54;;;;;;;;;;;8.60;98.50;;;;;;4956916;28;20463;-71
2022/04/22 03:41:20;;;;;;;;;;;8.60;98.90;;;;;;4951242;28;19930;-71
2022/04/22 03:43:47;;;;;;;;;;;8.50;99.10;;;;;;4963487;28;19927;-71
2022/04/22 03:46:14;;;;;;;;;;;8.50;99.60;;;;;;4951563;28;19930;-71
2022/04/22 03:48:41;;;;;;;;;;;8.50;99.90;;;;;;4956228;28;20017;-71
2022/04/22 03:51:07;;;;;;;;;;;8.50;99.90;;;;;;4951687;28;19927;-71
2022/04/22 03:53:37;;;;;;;;;;;8.50;99.90;;;;;;4963271;28;20504;-70
2022/04/22 03:58:46;;;;;;;;;;;8.40;99.90;;;;;;4961131;28;19927;-71
2022/04/22 04:01:13;;;;;;;;;;;8.30;99.90;;;;;;4953972;28;19930;-70
2022/04/22 04:03:40;;;;;;;;;;;8.40;99.90;;;;;;4962275;28;19926;-71
2022/04/22 04:06:07;;;;;;;;;;;8.40;99.90;;;;;;4955345;28;19948;-71
2022/04/22 04:08:34;;;;;;;;;;;8.40;99.90;;;;;;4961512;28;19934;-71
2022/04/22 04:16:30;;;;;;;;;;;8.30;99.90;;;;;;5019976;28;19933;-70
2022/04/22 04:23:14;;;;;;;;;;;8.20;99.90;;;;;;4963227;28;19945;-71
2022/04/22 04:24:28;;;;;;;;;;;8.20;99.90;;;;;;4954844;28;20397;-71
2022/04/22 04:26:54;;;;;;;;;;;8.10;99.90;;;;;;4959889;28;19926;-70
2022/04/22 04:29:22;;;;;;;;;;;8.10;99.90;;;;;;4959355;28;19931;-71
2022/04/22 04:31:49;;;;;;;;;;;8.20;99.90;;;;;;4962434;28;20407;-71
2022/04/22 04:34:16;;;;;;;;;;;8.10;99.90;;;;;;4957240;28;20352;-71
2022/04/22 04:36:42;;;;;;;;;;;8.10;99.90;;;;;;4958737;28;19927;-70
2022/04/22 04:39:09;;;;;;;;;;;8.10;99.90;;;;;;4956914;28;20020;-71
2022/04/22 04:41:36;;;;;;;;;;;8.10;99.90;;;;;;4963432;28;19934;-71
2022/04/22 04:44:02;;;;;;;;;;;8.10;99.90;;;;;;4968925;28;19932;-71
2022/04/22 04:46:30;;;;;;;;;;;8.10;99.90;;;;;;4966429;28;19933;-71
2022/04/22 04:49:01;;;;;;;;;;;8.10;99.90;;;;;;4969602;28;19926;-71
2022/04/22 04:51:28;;;;;;;;;;;8.10;99.90;;;;;;4974654;28;19973;-70
2022/04/22 04:53:54;;;;;;;;;;;8.10;99.90;;;;;;4970614;28;20274;-71
2022/04/22 04:56:21;;;;;;;;;;;8.10;99.90;;;;;;4968250;28;20352;-71
2022/04/22 04:58:48;;;;;;;;;;;8.10;99.90;;;;;;4953876;28;19926;-71
2022/04/22 05:01:14;;;;;;;;;;;8.10;99.90;;;;;;4964914;28;19941;-70
2022/04/22 05:03:42;;;;;;;;;;;8.10;99.90;;;;;;4968227;28;20036;-71
2022/04/22 05:06:11;;;;;;;;;;;8.10;99.90;;;;;;4957643;28;20315;-71
2022/04/22 05:08:37;;;;;;;;;;;8.10;99.90;;;;;;4963810;28;20328;-71
2022/04/22 05:11:04;;;;;;;;;;;8.20;99.90;;;;;;4972573;28;19926;-71
2022/04/22 05:13:30;;;;;;;;;;;8.20;99.90;;;;;;4964853;28;20013;-71
2022/04/22 05:15:57;;;;;;;;;;;8.20;99.90;;;;;;4970733;28;19938;-71
2022/04/22 05:18:24;;;;;;;;;;;8.20;99.90;;;;;;4958977;28;20017;-71
2022/04/22 05:20:52;;;;;;;;;;;8.20;99.90;;;;;;4972942;28;20304;-72
2022/04/22 05:23:19;;;;;;;;;;;8.20;99.90;;;;;;4965136;28;20356;-73
2022/04/22 05:25:45;;;;;;;;;;;8.20;99.90;;;;;;4968832;28;20013;-71
2022/04/22 05:28:12;;;;;;;;;;;8.30;99.90;;;;;;4973978;28;19926;-71
2022/04/22 05:33:23;;;;;;;;;;;8.30;99.90;;;;;;4961929;28;20403;-71
2022/04/22 05:35:50;;;;;;;;;;;8.40;99.90;;;;;;4969811;28;19948;-71
2022/04/22 05:38:22;;;;;;;;;;;8.40;99.90;;;;;;4963386;28;19972;-71
2022/04/22 05:40:49;;;;;;;;;;;8.50;99.90;;;;;;4975918;28;19926;-71
2022/04/22 05:43:15;;;;;;;;;;;8.50;99.90;;;;;;4967390;28;20247;-71
2022/04/22 05:45:42;;;;;;;;;;;8.60;99.90;;;;;;4954487;28;19988;-70
2022/04/22 05:48:09;;;;;;;;;;;8.60;99.90;;;;;;4957491;28;19933;-70
2022/04/22 05:50:35;;;;;;;;;;;8.60;99.90;;;;;;4952806;28;20009;-72
2022/04/22 05:53:02;;;;;;;;;;;8.60;99.90;;;;;;4955241;28;19941;-70
2022/04/22 05:55:30;;;;;;;;;;;8.70;99.90;;;;;;4966279;28;20309;-70
2022/04/22 05:57:59;;;;;;;;;;;8.80;99.90;;;;;;4970120;28;19949;-71
2022/04/22 06:00:27;;;;;;;;;;;8.80;99.90;;;;;;4969608;28;19971;-71
2022/04/22 06:02:55;;;;;;;;;;;8.90;99.90;;;;;;4959363;28;19937;-74
2022/04/22 06:05:23;;;;;;;;;;;8.90;99.90;;;;;;4968764;28;20297;-73
2022/04/22 06:10:31;;;;;;;;;;;9.00;99.90;;;;;;4955885;28;21662;-71
2022/04/22 06:10:37;;;;;;;;;;;8.90;99.90;;;;;;4963579;28;20397;-70
2022/04/22 06:13:04;;;;;;;;;;;9.00;99.90;;;;;;5025100;28;19934;-70
2022/04/22 06:15:32;;;;;;;;;;;9.00;99.90;;;;;;4969048;28;19937;-70
2022/04/22 06:17:59;;;;;;;;;;;9.00;99.90;;;;;;4962320;28;19965;-71
2022/04/22 06:20:26;;;;;;;;;;;9.10;99.90;;;;;;4964559;28;19954;-71
2022/04/22 06:22:54;;;;;;;;;;;9.10;99.90;;;;;;4967050;28;20301;-71
2022/04/22 06:25:21;;;;;;;;;;;9.20;99.90;;;;;;4969112;28;20325;-72
2022/04/22 06:27:49;;;;;;;;;;;9.30;99.90;;;;;;4968657;28;19934;-73
2022/04/22 06:30:17;;;;;;;;;;;9.40;99.90;;;;;;4971527;28;19926;-71
2022/04/22 06:32:44;;;;;;;;;;;9.40;99.90;;;;;;4956442;28;19926;-71
2022/04/22 06:35:14;;;;;;;;;;;9.40;99.90;;;;;;4958479;28;19930;-72
2022/04/22 06:37:42;;;;;;;;;;;9.50;99.90;;;;;;4960058;28;19930;-71
2022/04/22 06:45:49;;;;;;;;;;;9.80;99.90;;;;;;4956447;28;20023;-70
2022/04/22 06:48:17;;;;;;;;;;;9.80;99.90;;;;;;4959764;28;19980;-71
2022/04/22 06:50:44;;;;;;;;;;;9.90;99.90;;;;;;4956595;28;20017;-71
2022/04/22 06:53:11;;;;;;;;;;;10.00;99.90;;;;;;4966016;28;19949;-72
2022/04/22 06:55:38;;;;;;;;;;;10.00;99.90;;;;;;4958793;28;20363;-70
2022/04/22 06:58:14;;;;;;;;;;;10.00;99.90;;;;;;4961839;28;20210;-72
2022/04/22 07:00:42;;;;;;;;;;;10.10;99.90;;;;;;4963092;28;19930;-71
2022/04/22 07:03:09;;;;;;;;;;;10.20;99.90;;;;;;4967333;28;19932;-71
2022/04/22 07:05:37;;;;;;;;;;;10.40;99.90;;;;;;4961330;28;19932;-70
2022/04/22 07:08:05;;;;;;;;;;;10.70;99.90;;;;;;4952089;28;19927;-70
2022/04/22 07:10:32;;;;;;;;;;;11.30;98.90;;;;;;4952198;28;19926;-70
2022/04/22 07:12:59;;;;;;;;;;;11.50;98.00;;;;;;4959888;28;19926;-70
2022/04/22 07:15:28;;;;;;;;;;;11.60;97.20;;;;;;4964924;28;19981;-71
2022/04/22 07:17:55;;;;;;;;;;;11.60;96.70;;;;;;4959105;28;20286;-70
2022/04/22 07:20:22;;;;;;;;;;;11.80;96.40;;;;;;4960113;28;19969;-70
2022/04/22 07:22:49;;;;;;;;;;;12.00;95.60;;;;;;4970234;28;20366;-72
2022/04/22 07:25:16;;;;;;;;;;;12.30;94.90;;;;;;4959575;28;20021;-70
2022/04/22 07:27:44;;;;;;;;;;;12.40;93.80;;;;;;4969167;28;19949;-70
2022/04/22 07:30:12;;;;;;;;;;;12.30;94.00;;;;;;4960801;28;19996;-68
2022/04/22 07:32:42;;;;;;;;;;;13.40;92.20;;;;;;4953777;28;19927;-70
2022/04/22 07:35:12;;;;;;;;;;;13.00;92.00;;;;;;4961616;28;19952;-71
2022/04/22 07:37:39;;;;;;;;;;;13.20;90.90;;;;;;4966751;28;19952;-71
2022/04/22 07:40:06;;;;;;;;;;;13.50;89.60;;;;;;4962702;28;19933;-71
2022/04/22 07:42:34;;;;;;;;;;;13.40;87.90;;;;;;4962130;28;19977;-71
2022/04/22 07:47:47;;;;;;;;;;;14.00;85.70;;;;;;4969931;28;20026;-70
2022/04/22 07:50:15;;;;;;;;;;;13.70;85.80;;;;;;4952750;28;20443;-70
2022/04/22 07:52:44;;;;;;;;;;;13.00;88.00;;;;;;4953580;28;19973;-70
2022/04/22 07:55:11;;;;;;;;;;;13.50;87.20;;;;;;4968206;28;19971;-71
2022/04/22 07:57:40;;;;;;;;;;;14.00;82.90;;;;;;4958835;28;20011;-69
2022/04/22 08:00:07;;;;;;;;;;;13.30;85.80;;;;;;4960709;28;19934;-70
2022/04/22 08:02:34;;;;;;;;;;;13.50;83.50;;;;;;4963636;28;19941;-70
2022/04/22 08:05:02;;;;;;;;;;;13.80;82.60;;;;;;4961118;28;20081;-70
2022/04/22 08:07:29;;;;;;;;;;;14.20;79.40;;;;;;4956735;28;20439;-70
2022/04/22 08:09:56;;;;;;;;;;;13.90;79.60;;;;;;4966674;28;19926;-71
2022/04/22 08:12:23;;;;;;;;;;;13.90;81.50;;;;;;4951515;28;19927;-72
2022/04/22 08:14:49;;;;;;;;;;;14.10;77.80;;;;;;4964252;28;19926;-71
2022/04/22 08:17:16;;;;;;;;;;;13.20;81.50;;;;;;4963563;28;19983;-71
2022/04/22 08:19:46;;;;;;;;;;;13.20;83.50;;;;;;4962147;28;20172;-73
2022/04/22 08:22:17;;;;;;;;;;;12.90;83.20;;;;;;4962570;28;19934;-71
2022/04/22 08:24:44;;;;;;;;;;;12.80;83.70;;;;;;4966424;28;19933;-70
2022/04/22 08:27:11;;;;;;;;;;;13.10;83.30;;;;;;4964746;28;19970;-70
2022/04/22 08:29:38;;;;;;;;;;;13.70;79.40;;;;;;4959267;28;19945;-70
2022/04/22 08:32:05;;;;;;;;;;;13.00;82.70;;;;;;4960367;28;19970;-70
2022/04/22 08:34:32;;;;;;;;;;;13.30;80.70;;;;;;4962129;28;19930;-71
2022/04/22 08:36:58;;;;;;;;;;;13.70;78.50;;;;;;4956856;28;20616;-71
2022/04/22 08:39:27;;;;;;;;;;;13.50;78.10;;;;;;4956957;28;19933;-70
2022/04/22 08:41:54;;;;;;;;;;;13.60;78.00;;;;;;4957678;28;19927;-71
2022/04/22 08:44:22;;;;;;;;;;;13.10;80.00;;;;;;4961843;28;19926;-71
2022/04/22 08:52:17;;;;;;;;;;;15.10;68.40;;;;;;4959320;28;19938;-71
2022/04/22 08:54:46;;;;;;;;;;;15.20;66.50;;;;;;4950259;28;19930;-71
2022/04/22 08:57:13;;;;;;;;;;;14.10;69.20;;;;;;4962297;28;19931;-71
2022/04/22 08:59:40;;;;;;;;;;;13.80;69.20;;;;;;4953882;28;20289;-71
2022/04/22 09:02:07;;;;;;;;;;;13.70;72.10;;;;;;4956097;28;19927;-71
2022/04/22 09:04:34;;;;;;;;;;;13.60;69.90;;;;;;4960334;28;19926;-71
2022/04/22 09:07:00;;;;;;;;;;;13.90;70.40;;;;;;4954610;28;20029;-70
2022/04/22 09:09:27;;;;;;;;;;;14.70;64.60;;;;;;4964643;28;20404;-70
2022/04/22 09:12:06;;;;;;;;;;;13.70;68.00;;;;;;4957176;28;19926;-70
2022/04/22 09:14:33;;;;;;;;;;;14.00;68.20;;;;;;4961930;28;20022;-70
2022/04/22 09:17:00;;;;;;;;;;;13.70;69.30;;;;;;4956861;28;20009;-71
2022/04/22 09:19:34;;;;;;;;;;;13.80;66.60;;;;;;4957783;28;19926;-71
2022/04/22 09:22:02;;;;;;;;;;;13.60;67.70;;;;;;4954572;28;19941;-72
2022/04/22 09:24:28;;;;;;;;;;;13.70;68.30;;;;;;4959382;28;19927;-71
2022/04/22 09:27:06;;;;;;;;;;;13.30;67.20;;;;;;4975582;28;19926;-71
2022/04/22 09:29:50;;;;;;;;;;;13.10;68.70;;;;;;4966156;28;20362;-71
2022/04/22 09:32:22;;;;;;;;;;;13.30;68.00;;;;;;4965941;28;19933;-71
2022/04/22 09:34:50;;;;;;;;;;;14.10;66.70;;;;;;4964095;28;19926;-71
2022/04/22 09:42:49;;;;;;;;;;;16.30;57.40;;;;;;4959455;28;19933;-70
2022/04/22 09:45:17;;;;;;;;;;;15.10;58.80;;;;;;4954035;28;19948;-70
2022/04/22 09:47:43;;;;;;;;;;;14.60;59.80;;;;;;4959859;28;19926;-70
2022/04/22 09:50:11;;;;;;;;;;;14.30;59.00;;;;;;4961853;28;19930;-71
2022/04/22 09:52:43;;;;;;;;;;;14.10;58.70;;;;;;4961414;28;19980;-70
2022/04/22 09:55:10;;;;;;;;;;;14.50;57.70;;;;;;4963986;28;20063;-71
2022/04/22 09:57:52;;;;;;;;;;;14.80;57.00;;;;;;4957193;28;19926;-71
2022/04/22 10:00:19;;;;;;;;;;;14.60;57.50;;;;;;4958303;28;19937;-71
2022/04/22 10:02:49;;;;;;;;;;;14.80;57.50;;;;;;4959558;28;19932;-71
2022/04/22 10:05:18;;;;;;;;;;;14.60;54.40;;;;;;4960601;28;20009;-70
2022/04/22 10:07:47;;;;;;;;;;;14.10;54.80;;;;;;4963435;28;19934;-71
2022/04/22 10:10:14;;;;;;;;;;;14.20;55.80;;;;;;4964678;28;20373;-71
2022/04/22 10:12:42;;;;;;;;;;;14.30;53.40;;;;;;4961943;28;19942;-70
2022/04/22 10:15:11;;;;;;;;;;;14.20;53.40;;;;;;4960707;28;20404;-71
2022/04/22 10:17:38;;;;;;;;;;;14.40;53.60;;;;;;4959004;28;20518;-70
2022/04/22 10:20:06;;;;;;;;;;;14.50;54.30;;;;;;4963847;28;19933;-71
2022/04/22 10:22:33;;;;;;;;;;;14.10;52.30;;;;;;4965178;28;20316;-70
2022/04/22 10:25:02;;;;;;;;;;;14.40;52.50;;;;;;4962247;28;19926;-71
2022/04/22 10:27:32;;;;;;;;;;;14.50;50.40;;;;;;4962791;28;20364;-71
2022/04/22 10:29:59;;;;;;;;;;;14.50;52.00;;;;;;4961676;28;19926;-71
2022/04/22 10:32:28;;;;;;;;;;;14.30;51.80;;;;;;4957991;28;20364;-71
2022/04/22 10:34:57;;;;;;;;;;;14.20;51.70;;;;;;4957471;28;19934;-69
2022/04/22 10:37:25;;;;;;;;;;;14.10;52.50;;;;;;4961867;28;20293;-71
2022/04/22 10:39:52;;;;;;;;;;;14.00;51.50;;;;;;4969276;28;20393;-70
2022/04/22 10:42:19;;;;;;;;;;;13.80;52.60;;;;;;4957164;28;20389;-70
2022/04/22 10:47:40;;;;;;;;;;;13.70;53.30;;;;;;4957729;28;19941;-70
2022/04/22 10:50:21;;;;;;;;;;;13.70;54.50;;;;;;4965958;28;19930;-70
2022/04/22 10:52:55;;;;;;;;;;;13.60;54.90;;;;;;4965836;28;19926;-71
2022/04/22 10:55:22;;;;;;;;;;;13.60;55.80;;;;;;4968667;28;19934;-70
2022/04/22 10:57:51;;;;;;;;;;;13.60;55.60;;;;;;4960762;28;19930;-71
2022/04/22 11:00:30;;;;;;;;;;;13.50;56.90;;;;;;4966549;28;20293;-70
2022/04/22 11:03:12;;;;;;;;;;;13.50;56.70;;;;;;4957914;28;19930;-71
2022/04/22 11:05:43;;;;;;;;;;;13.60;57.50;;;;;;4962328;28;20084;-72
2022/04/22 11:08:17;;;;;;;;;;;13.50;57.00;;;;;;4964492;28;19948;-72
2022/04/22 11:11:03;;;;;;;;;;;13.70;57.00;;;;;;4957083;28;19970;-71
2022/04/22 11:13:31;;;;;;;;;;;13.60;57.10;;;;;;4950829;28;20416;-72
2022/04/22 11:16:00;;;;;;;;;;;13.80;57.00;;;;;;4953077;28;19934;-70
2022/04/22 11:18:30;;;;;;;;;;;13.90;56.30;;;;;;4955089;28;20020;-71
2022/04/22 11:21:02;;;;;;;;;;;13.90;56.30;;;;;;4960934;28;20382;-71
2022/04/22 11:23:39;;;;;;;;;;;13.90;56.00;;;;;;4965249;28;19926;-70
2022/04/22 11:26:06;;;;;;;;;;;13.70;55.30;;;;;;4953840;28;19988;-71
2022/04/22 11:28:36;;;;;;;;;;;13.70;55.00;;;;;;4967466;28;20013;-71
2022/04/22 11:31:04;;;;;;;;;;;13.60;55.20;;;;;;4967427;28;19927;-70
2022/04/22 11:33:35;;;;;;;;;;;13.90;55.60;;;;;;4968144;28;19926;-71
2022/04/22 11:36:06;;;;;;;;;;;14.00;54.10;;;;;;4968346;28;19926;-70
2022/04/22 11:38:33;;;;;;;;;;;14.10;54.10;;;;;;4961344;28;19933;-71
2022/04/22 11:41:00;;;;;;;;;;;14.20;54.50;;;;;;4964791;28;20018;-71
2022/04/22 11:43:28;;;;;;;;;;;14.40;53.40;;;;;;4962321;28;19956;-70
2022/04/22 11:45:55;;;;;;;;;;;14.30;52.90;;;;;;4969027;28;19926;-70
2022/04/22 11:48:22;;;;;;;;;;;14.50;52.30;;;;;;4954366;28;19978;-69
2022/04/22 11:50:52;;;;;;;;;;;14.30;51.30;;;;;;4960614;28;20007;-70
2022/04/22 11:53:20;;;;;;;;;;;14.20;51.70;;;;;;4955754;28;20021;-71
2022/04/22 11:55:48;;;;;;;;;;;14.20;51.00;;;;;;4966394;28;19936;-70
2022/04/22 11:58:16;;;;;;;;;;;14.20;51.90;;;;;;4967164;28;20296;-71
2022/04/22 12:06:17;;;;;;;;;;;14.30;52.30;;;;;;4955162;28;19937;-70
2022/04/22 12:09:02;;;;;;;;;;;14.00;52.80;;;;;;4960715;28;19934;-71
2022/04/22 12:11:28;;;;;;;;;;;14.20;52.70;;;;;;4963523;28;19940;-71
2022/04/22 12:13:55;;;;;;;;;;;14.10;51.90;;;;;;4964860;28;19926;-72
2022/04/22 12:16:22;;;;;;;;;;;14.20;51.90;;;;;;4966884;28;19933;-72
2022/04/22 12:18:50;;;;;;;;;;;14.20;52.10;;;;;;4962825;28;19934;-69
2022/04/22 12:21:18;;;;;;;;;;;14.50;51.00;;;;;;4966296;28;20032;-68
2022/04/22 12:23:46;;;;;;;;;;;14.70;49.50;;;;;;4961939;28;19933;-68
2022/04/22 12:26:17;;;;;;;;;;;15.10;51.30;;;;;;4966782;28;19934;-68
2022/04/22 12:28:56;;;;;;;;;;;14.90;48.90;;;;;;4962621;28;19933;-68
2022/04/22 12:31:23;;;;;;;;;;;14.70;48.80;;;;;;4969093;28;19926;-68
2022/04/22 12:33:56;;;;;;;;;;;14.80;47.40;;;;;;4963966;28;19926;-68
2022/04/22 12:36:24;;;;;;;;;;;14.90;50.20;;;;;;4966123;28;19926;-68
2022/04/22 12:38:51;;;;;;;;;;;14.70;48.40;;;;;;4961194;28;19926;-68
2022/04/22 12:41:18;;;;;;;;;;;14.90;49.00;;;;;;4965518;28;19972;-68
2022/04/22 12:43:49;;;;;;;;;;;15.20;47.60;;;;;;4953080;28;19973;-70
2022/04/22 12:52:09;;;;;;;;;;;15.10;46.30;;;;;;4961315;28;19933;-68
2022/04/22 12:54:36;;;;;;;;;;;15.30;46.60;;;;;;4962016;28;19926;-67
2022/04/22 12:57:04;;;;;;;;;;;14.90;45.30;;;;;;4961621;28;19926;-69
2022/04/22 12:59:40;;;;;;;;;;;15.20;46.30;;;;;;4960645;28;20389;-67
2022/04/22 13:02:07;;;;;;;;;;;15.10;45.70;;;;;;4965343;28;19926;-67
2022/04/22 13:04:49;;;;;;;;;;;15.00;45.80;;;;;;4965225;28;19926;-67
2022/04/22 13:07:17;;;;;;;;;;;15.20;44.40;;;;;;4963216;28;20012;-68
2022/04/22 13:09:44;;;;;;;;;;;15.50;43.80;;;;;;4957886;28;19934;-67
2022/04/22 13:12:10;;;;;;;;;;;15.50;41.60;;;;;;4966165;28;19939;-68
2022/04/22 13:14:37;;;;;;;;;;;15.30;42.90;;;;;;4965120;28;19927;-68
2022/04/22 13:17:04;;;;;;;;;;;15.40;43.20;;;;;;4962619;28;19933;-67
2022/04/22 13:19:31;;;;;;;;;;;15.70;43.30;;;;;;4967583;28;20474;-67
2022/04/22 13:21:58;;;;;;;;;;;16.00;42.90;;;;;;4963331;28;19930;-67
2022/04/22 13:24:26;;;;;;;;;;;16.20;41.90;;;;;;4968217;28;19934;-68
2022/04/22 13:26:53;;;;;;;;;;;16.10;41.80;;;;;;4962171;28;19926;-70
2022/04/22 13:29:20;;;;;;;;;;;16.40;43.30;;;;;;4962340;28;19934;-70
2022/04/22 13:31:47;;;;;;;;;;;16.30;43.20;;;;;;4960801;28;19933;-70
2022/04/22 13:34:13;;;;;;;;;;;15.80;45.80;;;;;;4962369;28;20268;-70
2022/04/22 13:36:40;;;;;;;;;;;15.60;46.30;;;;;;4971295;28;20296;-70
2022/04/22 13:39:06;;;;;;;;;;;15.50;47.70;;;;;;4959994;28;19941;-70
2022/04/22 13:41:35;;;;;;;;;;;15.50;47.10;;;;;;4973355;28;19937;-71
2022/04/22 13:44:01;;;;;;;;;;;15.10;47.20;;;;;;4965301;28;19970;-71
2022/04/22 13:54:41;;;;;;;;;;;15.10;47.00;;;;;;4958970;28;19945;-72
2022/04/22 13:57:09;;;;;;;;;;;15.20;46.60;;;;;;4958058;28;20025;-72
2022/04/22 13:59:36;;;;;;;;;;;15.40;46.40;;;;;;4958458;28;20021;-72
2022/04/22 14:02:03;;;;;;;;;;;15.30;44.80;;;;;;4958354;28;19930;-70
2022/04/22 14:04:32;;;;;;;;;;;15.60;43.70;;;;;;4952508;28;19953;-71
2022/04/22 14:06:58;;;;;;;;;;;16.00;43.40;;;;;;4959389;28;19938;-70
2022/04/22 14:09:25;;;;;;;;;;;16.30;43.80;;;;;;4956031;28;19980;-71
2022/04/22 14:11:52;;;;;;;;;;;16.00;44.30;;;;;;4957968;28;19965;-70
2022/04/22 14:14:22;;;;;;;;;;;16.30;43.80;;;;;;4958487;28;19936;-71
2022/04/22 14:16:50;;;;;;;;;;;16.10;43.50;;;;;;4967191;28;19928;-71
2022/04/22 14:19:17;;;;;;;;;;;16.20;42.60;;;;;;4959272;28;20005;-71
2022/04/22 14:21:44;;;;;;;;;;;16.10;42.80;;;;;;4954897;28;20054;-71
2022/04/22 14:24:10;;;;;;;;;;;16.10;42.70;;;;;;4959127;28;19927;-70
2022/04/22 14:26:38;;;;;;;;;;;15.90;42.30;;;;;;4955692;28;20351;-70
2022/04/22 14:29:05;;;;;;;;;;;15.80;43.60;;;;;;4957250;28;19934;-70
2022/04/22 14:31:34;;;;;;;;;;;15.90;43.80;;;;;;4963382;28;19934;-70
2022/04/22 14:34:01;;;;;;;;;;;16.00;43.20;;;;;;4958988;28;20017;-70
2022/04/22 14:36:27;;;;;;;;;;;16.10;41.00;;;;;;4960024;28;19926;-70
2022/04/22 14:38:54;;;;;;;;;;;16.10;41.40;;;;;;4957741;28;19931;-70
2022/04/22 14:41:21;;;;;;;;;;;16.00;43.10;;;;;;4963620;28;19982;-71
2022/04/22 14:43:48;;;;;;;;;;;15.80;43.40;;;;;;4959761;28;20012;-71
2022/04/22 14:46:16;;;;;;;;;;;15.80;41.70;;;;;;4960840;28;19927;-71
2022/04/22 14:48:45;;;;;;;;;;;15.90;41.30;;;;;;4957556;28;20013;-72
2022/04/22 14:51:12;;;;;;;;;;;16.00;39.30;;;;;;4959541;28;20047;-71
2022/04/22 14:53:39;;;;;;;;;;;16.00;38.90;;;;;;4967044;28;20399;-72
2022/04/22 14:56:06;;;;;;;;;;;16.10;39.70;;;;;;4963338;28;20129;-71
2022/04/22 14:58:32;;;;;;;;;;;15.80;39.50;;;;;;4963252;28;20057;-71
2022/04/22 15:00:59;;;;;;;;;;;16.00;39.60;;;;;;4969804;28;20313;-70
2022/04/22 15:03:26;;;;;;;;;;;15.90;40.80;;;;;;4965232;28;19926;-71
2022/04/22 15:05:54;;;;;;;;;;;16.00;39.20;;;;;;4968888;28;19994;-72
2022/04/22 15:08:22;;;;;;;;;;;15.80;38.50;;;;;;4959385;28;19930;-71
2022/04/22 15:10:48;;;;;;;;;;;15.90;38.20;;;;;;4962416;28;19934;-71
2022/04/22 15:13:15;;;;;;;;;;;16.00;39.00;;;;;;4966695;28;19934;-70
2022/04/22 15:15:44;;;;;;;;;;;15.90;38.80;;;;;;4961734;28;19945;-70
2022/04/22 15:26:25;;;;;;;;;;;16.00;39.80;;;;;;4956498;28;20304;-69
2022/04/22 15:28:52;;;;;;;;;;;16.20;39.50;;;;;;4959271;28;19980;-70
2022/04/22 15:31:18;;;;;;;;;;;16.30;37.00;;;;;;4959349;28;20358;-70
2022/04/22 15:33:45;;;;;;;;;;;16.40;38.90;;;;;;4965231;28;19926;-70
2022/04/22 15:36:17;;;;;;;;;;;16.20;37.40;;;;;;4963401;28;20377;-72
2022/04/22 15:38:44;;;;;;;;;;;16.20;37.60;;;;;;4955449;28;19987;-71
2022/04/22 15:41:12;;;;;;;;;;;16.40;38.50;;;;;;4963189;28;20005;-70
2022/04/22 15:43:40;;;;;;;;;;;16.20;39.50;;;;;;4962067;28;20372;-69
2022/04/22 15:46:07;;;;;;;;;;;16.30;39.10;;;;;;4964079;28;20013;-71